Time;durP1;ratioP1;P1;durP2;ratioP2;P2;SDS_P1;SDS_P2;PMS_P1;PMS_P2;Temp;Humidity;BMP_temperature;BMP_pressure;BME280_temperature;BME280_humidity;BME280_pressure;Samples;Min_cycle;Max_cycle;Signal;HPM_P1;HPM_P2
2022/02/17 00:01:03;;;;;;;16.33;15.63;;;13.10;85.40;;;;;;5072139;28;20557;-72
2022/02/17 00:03:30;;;;;;;16.30;15.60;;;13.10;85.10;;;;;;5072509;28;20464;-72
2022/02/17 00:05:58;;;;;;;16.60;15.90;;;13.20;84.60;;;;;;5071894;28;20460;-73
2022/02/17 00:08:24;;;;;;;17.40;16.60;;;13.20;84.10;;;;;;5072265;28;20463;-73
2022/02/17 00:10:52;;;;;;;16.93;16.13;;;13.30;83.50;;;;;;5072040;28;21006;-72
2022/02/17 00:13:19;;;;;;;17.10;16.30;;;13.40;83.10;;;;;;5072427;28;20463;-73
2022/02/17 00:15:49;;;;;;;17.13;16.33;;;13.50;82.40;;;;;;5072117;28;20528;-73
2022/02/17 00:18:21;;;;;;;17.27;16.47;;;13.50;82.30;;;;;;5072116;28;20452;-72
2022/02/17 00:20:48;;;;;;;16.90;16.20;;;13.50;82.00;;;;;;5072166;28;20479;-73
2022/02/17 00:23:15;;;;;;;17.20;16.40;;;13.60;81.70;;;;;;5072173;28;20455;-73
2022/02/17 00:25:42;;;;;;;18.00;17.20;;;13.60;81.40;;;;;;5071925;28;20453;-73
2022/02/17 00:28:09;;;;;;;18.47;17.60;;;13.60;81.40;;;;;;5072172;28;20484;-72
2022/02/17 00:30:36;;;;;;;17.37;16.57;;;13.70;81.40;;;;;;5071665;28;20484;-72
2022/02/17 00:33:04;;;;;;;17.90;16.83;;;13.70;81.10;;;;;;5072090;28;20839;-73
2022/02/17 00:35:31;;;;;;;17.47;16.67;;;13.70;81.20;;;;;;5071966;28;20482;-73
2022/02/17 00:37:59;;;;;;;17.50;16.70;;;13.80;81.00;;;;;;5071907;28;20894;-73
2022/02/17 00:40:26;;;;;;;17.73;16.93;;;13.80;81.00;;;;;;5071795;28;20454;-73
2022/02/17 00:42:53;;;;;;;18.20;17.40;;;13.80;81.00;;;;;;5072106;28;20458;-73
2022/02/17 00:45:20;;;;;;;18.40;17.50;;;13.80;80.80;;;;;;5071703;28;20487;-73
2022/02/17 00:47:47;;;;;;;18.50;17.60;;;13.70;80.90;;;;;;5072037;28;20459;-73
2022/02/17 00:50:15;;;;;;;18.10;17.20;;;13.60;81.20;;;;;;5071625;28;20495;-73
2022/02/17 00:52:42;;;;;;;18.20;17.30;;;13.80;81.00;;;;;;5071974;28;20453;-73
2022/02/17 00:55:09;;;;;;;18.30;17.30;;;13.80;80.90;;;;;;5071852;28;20573;-73
2022/02/17 00:57:36;;;;;;;17.90;17.10;;;13.80;80.80;;;;;;5074913;28;20533;-73
2022/02/17 01:00:05;;;;;;;17.50;16.70;;;13.80;81.10;;;;;;5075348;28;20540;-73
2022/02/17 01:02:32;;;;;;;17.97;17.17;;;13.80;81.10;;;;;;5075811;28;20544;-73
2022/02/17 01:04:59;;;;;;;17.40;16.60;;;13.80;81.10;;;;;;5075539;28;20772;-73
2022/02/17 01:07:27;;;;;;;17.40;16.60;;;13.80;81.30;;;;;;5075200;28;21006;-73
2022/02/17 01:09:54;;;;;;;17.20;16.40;;;13.70;81.60;;;;;;5075249;28;20489;-73
2022/02/17 01:12:21;;;;;;;17.10;16.40;;;13.70;81.80;;;;;;5075043;28;20470;-73
2022/02/17 01:14:48;;;;;;;16.50;15.80;;;13.80;82.00;;;;;;5075438;28;20480;-73
2022/02/17 01:17:15;;;;;;;16.50;15.80;;;13.70;82.70;;;;;;5075366;28;20500;-73
2022/02/17 01:19:41;;;;;;;16.30;15.60;;;13.60;84.10;;;;;;5075238;28;20462;-73
2022/02/17 01:22:08;;;;;;;16.50;15.73;;;13.50;84.70;;;;;;5075196;28;20574;-73
2022/02/17 01:24:37;;;;;;;16.20;15.50;;;13.50;84.90;;;;;;5074914;28;20544;-73
2022/02/17 01:27:04;;;;;;;15.80;15.10;;;13.40;85.30;;;;;;5075096;28;20460;-73
2022/02/17 01:29:31;;;;;;;16.03;15.33;;;13.40;85.20;;;;;;5074974;28;20453;-73
2022/02/17 01:31:58;;;;;;;15.50;14.83;;;13.30;85.30;;;;;;5075133;28;20498;-73
2022/02/17 01:34:25;;;;;;;15.80;15.10;;;13.20;85.40;;;;;;5075134;28;20531;-73
2022/02/17 01:36:51;;;;;;;15.70;15.00;;;13.10;85.80;;;;;;5075051;28;20481;-73
2022/02/17 01:39:18;;;;;;;15.70;15.00;;;13.10;85.90;;;;;;5074678;28;20535;-73
2022/02/17 01:41:46;;;;;;;15.70;15.00;;;13.10;86.00;;;;;;5074907;28;20471;-73
2022/02/17 01:44:13;;;;;;;16.20;15.50;;;13.10;85.90;;;;;;5074910;28;20542;-72
2022/02/17 01:46:42;;;;;;;16.03;15.33;;;13.10;86.10;;;;;;5074818;28;20458;-72
2022/02/17 01:49:11;;;;;;;15.07;14.47;;;13.10;86.40;;;;;;5074670;28;20469;-72
2022/02/17 01:51:39;;;;;;;15.60;14.90;;;13.10;86.60;;;;;;5074796;28;20504;-73
2022/02/17 01:54:06;;;;;;;15.30;14.70;;;13.00;86.80;;;;;;5074504;28;20541;-72
2022/02/17 01:56:37;;;;;;;15.27;14.60;;;12.90;87.00;;;;;;5074239;28;20501;-72
2022/02/17 01:59:07;;;;;;;14.40;13.80;;;13.00;87.40;;;;;;5074689;28;20860;-72
2022/02/17 02:01:35;;;;;;;14.60;14.00;;;13.00;87.80;;;;;;5074658;28;20555;-72
2022/02/17 02:04:03;;;;;;;14.17;13.57;;;12.90;87.90;;;;;;5074607;28;20529;-72
2022/02/17 02:06:30;;;;;;;14.57;13.97;;;12.90;88.40;;;;;;5074020;28;20452;-72
2022/02/17 02:08:58;;;;;;;15.30;14.60;;;12.80;88.70;;;;;;5074150;28;20819;-72
2022/02/17 02:11:25;;;;;;;15.60;14.90;;;12.70;88.70;;;;;;5074202;28;20468;-72
2022/02/17 02:13:52;;;;;;;15.10;14.40;;;12.70;88.80;;;;;;5074334;28;20510;-73
2022/02/17 02:16:21;;;;;;;15.00;14.40;;;12.70;88.90;;;;;;5074079;28;20479;-73
2022/02/17 02:18:48;;;;;;;15.20;14.53;;;12.70;88.80;;;;;;5074315;28;20451;-72
2022/02/17 02:21:16;;;;;;;15.30;14.60;;;12.70;88.70;;;;;;5074075;28;20475;-72
2022/02/17 02:23:43;;;;;;;15.30;14.60;;;12.70;89.00;;;;;;5073954;28;20463;-72
2022/02/17 02:26:10;;;;;;;14.83;14.23;;;12.70;89.00;;;;;;5074243;28;20453;-73
2022/02/17 02:28:37;;;;;;;14.60;14.00;;;12.60;89.50;;;;;;5074060;28;20447;-72
2022/02/17 02:31:03;;;;;;;14.40;13.80;;;12.60;89.50;;;;;;5073572;28;20554;-72
2022/02/17 02:33:30;;;;;;;14.60;13.80;;;12.70;89.50;;;;;;5074000;28;20450;-73
2022/02/17 02:35:58;;;;;;;14.50;13.60;;;12.70;89.60;;;;;;5073861;28;20553;-73
2022/02/17 02:38:26;;;;;;;14.20;13.60;;;12.60;90.00;;;;;;5073826;28;20466;-72
2022/02/17 02:40:55;;;;;;;13.90;13.30;;;12.60;90.30;;;;;;5073646;28;20996;-72
2022/02/17 02:43:22;;;;;;;13.77;13.17;;;12.50;90.70;;;;;;5073904;28;20463;-73
2022/02/17 02:45:49;;;;;;;13.63;13.03;;;12.50;90.70;;;;;;5073576;28;20925;-73
2022/02/17 02:48:15;;;;;;;13.30;12.80;;;12.50;90.70;;;;;;5073597;28;20491;-72
2022/02/17 02:50:43;;;;;;;13.50;12.90;;;12.50;91.00;;;;;;5073303;28;20474;-72
2022/02/17 02:53:14;;;;;;;13.27;12.77;;;12.50;90.90;;;;;;5073701;28;20886;-73
2022/02/17 02:55:44;;;;;;;13.30;12.80;;;12.50;90.90;;;;;;5073468;28;20473;-73
2022/02/17 02:58:11;;;;;;;13.37;12.80;;;12.50;90.90;;;;;;5073481;28;20508;-73
2022/02/17 03:00:38;;;;;;;13.00;12.50;;;12.50;91.00;;;;;;5073140;28;20530;-72
2022/02/17 03:03:05;;;;;;;13.20;12.70;;;12.40;91.10;;;;;;5073408;28;20822;-73
2022/02/17 03:05:32;;;;;;;13.60;12.90;;;12.40;90.90;;;;;;5073312;28;20989;-72
2022/02/17 03:07:59;;;;;;;13.07;12.50;;;12.40;91.10;;;;;;5073346;28;20486;-74
2022/02/17 03:10:27;;;;;;;13.27;12.77;;;12.40;91.00;;;;;;5072944;28;20478;-71
2022/02/17 03:12:57;;;;;;;13.10;12.60;;;12.50;91.00;;;;;;5073204;28;20456;-71
2022/02/17 03:15:24;;;;;;;13.03;12.53;;;12.50;90.60;;;;;;5072920;28;20516;-72
2022/02/17 03:17:51;;;;;;;12.90;12.40;;;12.50;90.60;;;;;;5072910;28;20486;-73
2022/02/17 03:20:19;;;;;;;13.10;12.60;;;12.60;90.40;;;;;;5072053;28;20452;-73
2022/02/17 03:22:46;;;;;;;14.03;13.43;;;12.60;90.30;;;;;;5073153;28;20451;-74
2022/02/17 03:25:14;;;;;;;13.60;12.90;;;12.50;90.40;;;;;;5072700;28;20516;-74
2022/02/17 03:27:41;;;;;;;13.50;12.90;;;12.50;90.50;;;;;;5072905;28;20453;-74
2022/02/17 03:30:12;;;;;;;13.60;13.10;;;12.50;90.40;;;;;;5072457;28;20456;-71
2022/02/17 03:32:39;;;;;;;13.40;12.90;;;12.50;90.40;;;;;;5073332;28;20493;-71
2022/02/17 03:35:08;;;;;;;13.30;12.70;;;12.50;90.20;;;;;;5072531;28;20483;-71
2022/02/17 03:37:35;;;;;;;13.20;12.60;;;12.50;90.20;;;;;;5072702;28;20457;-71
2022/02/17 03:40:02;;;;;;;13.17;12.67;;;12.50;90.60;;;;;;5072574;28;20559;-71
2022/02/17 03:42:30;;;;;;;12.80;12.30;;;12.50;90.70;;;;;;5072642;28;20573;-72
2022/02/17 03:44:57;;;;;;;13.30;12.80;;;12.50;90.90;;;;;;5072443;28;20510;-71
2022/02/17 03:47:25;;;;;;;13.50;13.00;;;12.40;90.90;;;;;;5072793;28;20518;-71
2022/02/17 03:49:52;;;;;;;13.40;12.80;;;12.40;90.90;;;;;;5072417;28;20954;-71
2022/02/17 03:52:19;;;;;;;14.90;14.30;;;12.50;90.70;;;;;;5072712;28;20479;-71
2022/02/17 03:54:46;;;;;;;13.83;13.20;;;12.50;90.50;;;;;;5072444;28;20834;-71
2022/02/17 03:57:12;;;;;;;13.30;12.80;;;12.50;90.70;;;;;;5072459;28;20461;-71
2022/02/17 03:59:39;;;;;;;13.10;12.60;;;12.50;90.50;;;;;;5072324;28;20528;-71
2022/02/17 04:02:07;;;;;;;13.40;12.90;;;12.50;90.30;;;;;;5072463;28;20469;-71
2022/02/17 04:04:35;;;;;;;14.30;13.70;;;12.50;90.20;;;;;;5072415;28;20459;-71
2022/02/17 04:07:02;;;;;;;14.97;14.30;;;12.50;90.10;;;;;;5071914;28;20540;-71
2022/02/17 04:09:29;;;;;;;13.97;13.37;;;12.60;89.70;;;;;;5072039;28;21029;-71
2022/02/17 04:11:56;;;;;;;16.03;15.33;;;12.60;89.70;;;;;;5072229;28;20467;-71
2022/02/17 04:14:23;;;;;;;14.47;13.87;;;12.70;89.60;;;;;;5072293;28;20540;-71
2022/02/17 04:16:50;;;;;;;14.07;13.47;;;12.70;89.70;;;;;;5071916;28;20955;-71
2022/02/17 04:19:18;;;;;;;15.17;14.47;;;12.60;89.70;;;;;;5072037;28;20540;-71
2022/02/17 04:21:46;;;;;;;14.70;14.00;;;12.60;89.80;;;;;;5072155;28;20529;-72
2022/02/17 04:24:13;;;;;;;16.80;16.10;;;12.70;89.60;;;;;;5071980;28;20463;-71
2022/02/17 04:26:40;;;;;;;16.07;15.37;;;12.70;89.40;;;;;;5072206;28;20449;-71
2022/02/17 04:29:07;;;;;;;16.37;15.67;;;12.70;89.80;;;;;;5071878;28;20447;-72
2022/02/17 04:31:34;;;;;;;15.40;14.70;;;12.60;90.10;;;;;;5075574;28;20476;-71
2022/02/17 04:34:01;;;;;;;15.57;14.87;;;12.70;89.90;;;;;;5076304;28;20463;-71
2022/02/17 04:36:27;;;;;;;15.10;14.40;;;12.80;89.80;;;;;;5076161;28;20477;-72
2022/02/17 04:38:56;;;;;;;15.83;15.03;;;12.80;89.70;;;;;;5076124;28;20499;-71
2022/02/17 04:44:08;;;;;;;15.77;15.07;;;12.70;90.00;;;;;;5076211;28;20567;-71
2022/02/17 04:46:35;;;;;;;15.17;14.47;;;12.70;90.00;;;;;;5076028;28;20549;-72
2022/02/17 04:49:02;;;;;;;15.67;14.97;;;12.70;89.80;;;;;;5075731;28;20498;-72
2022/02/17 04:51:29;;;;;;;15.20;14.50;;;12.70;90.00;;;;;;5075633;28;20989;-71
2022/02/17 04:53:57;;;;;;;14.80;14.20;;;12.80;89.80;;;;;;5076012;28;20512;-73
2022/02/17 04:56:24;;;;;;;16.07;15.37;;;12.80;89.70;;;;;;5076116;28;20475;-71
2022/02/17 04:58:51;;;;;;;14.23;13.63;;;12.70;89.90;;;;;;5075891;28;20453;-72
2022/02/17 05:01:17;;;;;;;14.03;13.43;;;12.70;90.20;;;;;;5075450;28;20832;-71
2022/02/17 05:03:44;;;;;;;20.17;18.90;;;12.70;90.20;;;;;;5075618;28;21061;-72
2022/02/17 05:06:11;;;;;;;17.80;16.80;;;12.70;89.90;;;;;;5075645;28;20461;-72
2022/02/17 05:08:38;;;;;;;17.03;16.23;;;12.80;89.20;;;;;;5075505;28;20526;-72
2022/02/17 05:11:06;;;;;;;16.63;15.83;;;12.90;88.80;;;;;;5075189;28;20618;-72
2022/02/17 05:13:33;;;;;;;15.80;15.10;;;12.90;88.80;;;;;;5075547;28;20540;-72
2022/02/17 05:16:00;;;;;;;15.50;14.80;;;12.90;88.90;;;;;;5075401;28;20476;-72
2022/02/17 05:18:27;;;;;;;15.53;14.83;;;12.90;89.00;;;;;;5075108;28;20538;-72
2022/02/17 05:20:54;;;;;;;15.33;14.63;;;12.90;88.90;;;;;;5074983;28;21022;-72
2022/02/17 05:23:21;;;;;;;15.43;14.73;;;12.90;89.00;;;;;;5075211;28;20988;-72
2022/02/17 05:25:48;;;;;;;16.13;15.43;;;12.90;89.20;;;;;;5075068;28;20463;-72
2022/02/17 05:28:17;;;;;;;16.00;15.30;;;12.80;88.50;;;;;;5075240;28;20456;-72
2022/02/17 05:30:44;;;;;;;15.23;14.53;;;12.80;88.40;;;;;;5074685;28;20837;-72
2022/02/17 05:33:12;;;;;;;14.93;14.33;;;12.80;88.30;;;;;;5075326;28;20452;-72
2022/02/17 05:35:39;;;;;;;15.90;15.20;;;12.90;86.90;;;;;;5075002;28;20482;-72
2022/02/17 05:38:07;;;;;;;16.77;16.10;;;12.90;87.00;;;;;;5075450;28;20534;-72
2022/02/17 05:40:34;;;;;;;17.03;16.23;;;12.90;87.10;;;;;;5074881;28;20497;-71
2022/02/17 05:43:02;;;;;;;16.10;15.20;;;12.90;86.30;;;;;;5074031;28;20889;-72
2022/02/17 05:45:31;;;;;;;18.47;17.67;;;12.80;86.80;;;;;;5074752;28;20474;-72
2022/02/17 05:47:58;;;;;;;16.77;15.87;;;12.80;86.50;;;;;;5074736;28;20538;-71
2022/02/17 05:50:25;;;;;;;17.53;16.73;;;12.90;86.00;;;;;;5074536;28;20456;-72
2022/02/17 05:52:52;;;;;;;16.83;16.03;;;12.80;85.20;;;;;;5075033;28;20555;-72
2022/02/17 05:55:20;;;;;;;17.03;16.23;;;12.90;85.50;;;;;;5074780;28;20476;-71
2022/02/17 05:57:47;;;;;;;16.87;16.07;;;12.90;85.30;;;;;;5074564;28;20537;-71
2022/02/17 06:00:15;;;;;;;19.47;18.57;;;12.90;84.00;;;;;;5074231;28;20497;-72
2022/02/17 06:02:44;;;;;;;17.73;16.83;;;12.80;83.60;;;;;;5074766;28;20456;-72
2022/02/17 06:05:12;;;;;;;17.90;16.90;;;12.80;83.10;;;;;;5074584;28;20534;-71
2022/02/17 06:07:40;;;;;;;17.50;16.40;;;12.80;82.90;;;;;;5074495;28;20453;-71
2022/02/17 06:10:08;;;;;;;17.90;17.00;;;12.70;82.70;;;;;;5074225;28;20452;-71
2022/02/17 06:12:42;;;;;;;18.37;17.43;;;12.70;82.60;;;;;;5074343;28;20461;-72
2022/02/17 06:15:10;;;;;;;19.67;18.67;;;12.80;79.70;;;;;;5074398;28;20456;-72
2022/02/17 06:17:37;;;;;;;19.80;18.80;;;12.70;80.30;;;;;;5074212;28;20481;-71
2022/02/17 06:20:07;;;;;;;20.40;18.90;;;12.70;79.30;;;;;;5073948;28;20452;-71
2022/02/17 06:22:34;;;;;;;19.80;18.73;;;12.70;79.40;;;;;;5074690;28;20919;-71
2022/02/17 06:25:01;;;;;;;20.83;19.50;;;12.60;79.60;;;;;;5073779;28;20749;-71
2022/02/17 06:27:29;;;;;;;19.80;18.60;;;12.60;79.60;;;;;;5073735;28;20484;-71
2022/02/17 06:29:56;;;;;;;21.10;19.60;;;12.60;80.20;;;;;;5073679;28;20464;-72
2022/02/17 06:32:23;;;;;;;19.83;18.83;;;12.60;80.70;;;;;;5074010;28;20470;-71
2022/02/17 06:34:50;;;;;;;20.50;19.17;;;12.40;80.90;;;;;;5073944;28;20453;-71
2022/02/17 06:37:18;;;;;;;21.20;19.80;;;12.40;80.90;;;;;;5073763;28;20481;-71
2022/02/17 06:39:45;;;;;;;18.10;17.00;;;12.40;81.20;;;;;;5073659;28;20460;-71
2022/02/17 06:42:12;;;;;;;20.10;19.00;;;12.40;81.40;;;;;;5073758;28;20470;-72
2022/02/17 06:44:39;;;;;;;20.27;19.07;;;12.30;81.70;;;;;;5073487;28;20463;-71
2022/02/17 06:47:06;;;;;;;20.43;19.27;;;12.30;81.30;;;;;;5073588;28;20889;-71
2022/02/17 06:49:34;;;;;;;20.67;19.20;;;12.30;81.00;;;;;;5073692;28;20451;-72
2022/02/17 06:52:04;;;;;;;21.63;20.33;;;12.30;80.80;;;;;;5073633;28;20475;-71
2022/02/17 06:54:33;;;;;;;20.07;18.80;;;12.30;79.40;;;;;;5073572;28;20461;-71
2022/02/17 06:57:04;;;;;;;20.80;19.60;;;12.20;78.90;;;;;;5073536;28;20484;-71
2022/02/17 06:59:33;;;;;;;21.43;19.90;;;12.10;79.10;;;;;;5073348;28;20976;-71
2022/02/17 07:02:00;;;;;;;22.40;21.10;;;12.10;78.40;;;;;;5073559;28;20495;-71
2022/02/17 07:04:27;;;;;;;22.37;20.87;;;12.10;79.00;;;;;;5073296;28;20457;-71
2022/02/17 07:06:54;;;;;;;21.73;20.37;;;12.20;77.50;;;;;;5073281;28;20457;-71
2022/02/17 07:09:21;;;;;;;23.70;22.03;;;12.20;78.20;;;;;;5073061;28;20535;-72
2022/02/17 07:11:50;;;;;;;22.87;21.33;;;12.20;77.20;;;;;;5073225;28;20825;-72
2022/02/17 07:14:16;;;;;;;23.33;21.50;;;12.10;77.00;;;;;;5073131;28;20493;-72
2022/02/17 07:16:43;;;;;;;23.00;21.30;;;12.20;77.20;;;;;;5072921;28;20914;-73
2022/02/17 07:19:10;;;;;;;23.33;21.30;;;12.20;77.10;;;;;;5072816;28;20534;-72
2022/02/17 07:21:37;;;;;;;23.10;21.60;;;12.20;77.30;;;;;;5072917;28;20478;-72
2022/02/17 07:24:04;;;;;;;21.83;20.00;;;12.20;77.70;;;;;;5072870;28;20475;-72
2022/02/17 07:26:31;;;;;;;22.20;20.50;;;12.10;78.40;;;;;;5072795;28;20535;-72
2022/02/17 07:29:00;;;;;;;21.13;19.93;;;12.20;78.70;;;;;;5072871;28;20448;-72
2022/02/17 07:31:27;;;;;;;21.63;20.17;;;12.20;79.10;;;;;;5072453;28;20566;-72
2022/02/17 07:33:54;;;;;;;20.70;19.30;;;12.20;79.30;;;;;;5072873;28;20458;-72
2022/02/17 07:36:21;;;;;;;22.50;20.80;;;12.10;80.20;;;;;;5072812;28;20481;-72
2022/02/17 07:38:47;;;;;;;20.50;19.00;;;12.20;80.10;;;;;;5072776;28;20530;-72
2022/02/17 07:41:14;;;;;;;21.57;20.07;;;12.30;79.60;;;;;;5072445;28;20480;-72
2022/02/17 07:43:41;;;;;;;22.17;20.87;;;12.20;79.20;;;;;;5072722;28;20942;-72
2022/02/17 07:46:10;;;;;;;22.70;21.10;;;12.20;79.40;;;;;;5072460;28;20529;-72
2022/02/17 07:48:39;;;;;;;22.93;20.67;;;12.20;79.60;;;;;;5072374;28;20548;-72
2022/02/17 07:51:07;;;;;;;21.60;20.20;;;12.20;78.30;;;;;;5072444;28;20475;-72
2022/02/17 07:53:34;;;;;;;23.37;21.77;;;12.10;78.50;;;;;;5072517;28;20582;-72
2022/02/17 07:56:02;;;;;;;24.20;22.47;;;12.10;76.30;;;;;;5072468;28;20541;-72
2022/02/17 07:58:29;;;;;;;22.87;21.47;;;12.20;76.60;;;;;;5072462;28;20809;-72
2022/02/17 08:00:56;;;;;;;24.53;22.90;;;12.20;75.50;;;;;;5072163;28;20874;-72
2022/02/17 08:03:24;;;;;;;23.77;21.90;;;12.20;75.90;;;;;;5072324;28;20458;-72
2022/02/17 08:05:51;;;;;;;24.27;22.33;;;12.30;74.40;;;;;;5071857;28;20795;-72
2022/02/17 08:08:18;;;;;;;22.20;20.80;;;12.30;75.20;;;;;;5072357;28;21281;-72
2022/02/17 08:10:46;;;;;;;24.27;22.60;;;12.40;73.90;;;;;;5072131;28;20476;-72
2022/02/17 08:13:13;;;;;;;22.83;21.53;;;12.50;72.60;;;;;;5072444;28;20477;-72
2022/02/17 08:15:41;;;;;;;24.87;23.17;;;12.50;72.00;;;;;;5072362;28;20458;-72
2022/02/17 08:18:08;;;;;;;23.07;21.43;;;12.60;71.60;;;;;;5072128;28;20922;-72
2022/02/17 08:20:36;;;;;;;23.03;21.47;;;12.50;71.70;;;;;;5072137;28;20476;-72
2022/02/17 08:23:04;;;;;;;22.70;21.20;;;12.70;71.00;;;;;;5072233;28;20933;-72
2022/02/17 08:25:31;;;;;;;24.10;22.47;;;12.70;70.70;;;;;;5071691;28;20828;-72
2022/02/17 08:27:58;;;;;;;24.60;22.23;;;12.80;70.60;;;;;;5071990;28;20531;-72
2022/02/17 08:30:25;;;;;;;22.27;20.77;;;12.80;70.00;;;;;;5071828;28;20503;-72
2022/02/17 08:32:55;;;;;;;24.97;22.70;;;12.80;68.30;;;;;;5072206;28;20539;-72
2022/02/17 08:35:22;;;;;;;25.77;23.67;;;12.80;68.80;;;;;;5071975;28;20509;-72
2022/02/17 08:37:50;;;;;;;22.60;21.20;;;12.80;68.40;;;;;;5071900;28;20474;-72
2022/02/17 08:40:17;;;;;;;24.83;23.20;;;12.80;66.80;;;;;;5071687;28;20506;-72
2022/02/17 08:42:44;;;;;;;23.37;21.63;;;12.80;66.80;;;;;;5072018;28;21018;-72
2022/02/17 08:45:11;;;;;;;23.67;21.53;;;12.80;66.00;;;;;;5071991;28;20980;-72
2022/02/17 08:47:39;;;;;;;25.30;23.13;;;12.70;65.20;;;;;;5071688;28;20526;-72
2022/02/17 08:50:09;;;;;;;23.77;22.03;;;12.50;66.30;;;;;;5071818;28;20783;-72
2022/02/17 08:52:36;;;;;;;25.00;23.13;;;12.50;67.50;;;;;;5072056;28;20462;-72
2022/02/17 08:55:06;;;;;;;23.60;21.90;;;12.70;66.10;;;;;;5071925;28;20447;-72
2022/02/17 08:57:33;;;;;;;25.07;23.17;;;12.80;66.40;;;;;;5071617;28;21104;-72
2022/02/17 09:00:00;;;;;;;23.23;21.63;;;12.70;65.30;;;;;;5071824;28;20459;-72
2022/02/17 09:02:27;;;;;;;26.17;23.90;;;12.70;66.10;;;;;;5072056;28;20467;-72
2022/02/17 09:04:54;;;;;;;25.40;23.70;;;12.90;64.50;;;;;;5071739;28;20456;-72
2022/02/17 09:07:21;;;;;;;22.80;21.30;;;13.10;64.40;;;;;;5071665;28;20448;-72
2022/02/17 09:09:47;;;;;;;23.57;21.87;;;13.20;63.20;;;;;;5071635;28;20530;-72
2022/02/17 09:12:16;;;;;;;24.40;22.40;;;13.20;63.30;;;;;;5071694;28;20840;-72
2022/02/17 09:14:42;;;;;;;23.20;21.60;;;13.20;63.20;;;;;;5071700;28;20469;-72
2022/02/17 09:17:09;;;;;;;24.13;22.23;;;13.00;63.00;;;;;;5072422;28;20840;-72
2022/02/17 09:19:37;;;;;;;23.63;21.67;;;12.90;64.00;;;;;;5075182;28;20990;-72
2022/02/17 09:22:04;;;;;;;24.10;22.20;;;13.00;63.70;;;;;;5075270;28;20475;-72
2022/02/17 09:24:31;;;;;;;23.33;21.57;;;13.20;62.70;;;;;;5075171;28;20944;-72
2022/02/17 09:26:58;;;;;;;24.37;22.57;;;13.20;62.10;;;;;;5075284;28;20449;-72
2022/02/17 09:29:26;;;;;;;24.10;22.03;;;13.40;62.20;;;;;;5074857;28;20454;-72
2022/02/17 09:31:53;;;;;;;26.83;24.47;;;13.30;59.40;;;;;;5075339;28;20476;-72
2022/02/17 09:34:20;;;;;;;23.27;21.40;;;13.20;57.80;;;;;;5075033;28;20463;-72
2022/02/17 09:36:47;;;;;;;24.80;22.83;;;13.30;57.80;;;;;;5074871;28;20480;-72
2022/02/17 09:39:15;;;;;;;25.17;23.33;;;13.40;56.80;;;;;;5074813;28;20564;-71
2022/02/17 09:41:43;;;;;;;25.27;23.20;;;13.30;56.20;;;;;;5075125;28;20505;-72
2022/02/17 09:44:11;;;;;;;24.37;22.37;;;13.30;56.30;;;;;;5075126;28;20927;-72
2022/02/17 09:46:44;;;;;;;24.60;22.60;;;13.20;55.20;;;;;;5074766;28;20953;-74
2022/02/17 09:49:15;;;;;;;24.57;22.50;;;13.10;56.40;;;;;;5074688;28;20872;-73
2022/02/17 09:51:43;;;;;;;24.10;22.10;;;13.10;56.50;;;;;;5074765;28;20492;-74
2022/02/17 09:54:11;;;;;;;23.80;22.00;;;13.20;56.60;;;;;;5074835;28;20480;-71
2022/02/17 09:56:38;;;;;;;24.50;22.50;;;13.10;56.40;;;;;;5074284;28;20461;-71
2022/02/17 09:59:06;;;;;;;24.93;23.03;;;13.10;57.30;;;;;;5074628;28;20476;-73
2022/02/17 10:01:33;;;;;;;25.60;23.40;;;13.30;57.00;;;;;;5074493;28;20556;-73
2022/02/17 10:04:15;;;;;;;25.53;23.47;;;13.20;57.50;;;;;;5074570;28;20450;-73
2022/02/17 10:06:44;;;;;;;25.53;22.87;;;13.20;57.30;;;;;;5074701;28;20453;-74
2022/02/17 10:09:11;;;;;;;25.27;23.17;;;13.40;58.20;;;;;;5074345;28;20540;-73
2022/02/17 10:11:40;;;;;;;25.63;23.03;;;13.40;58.00;;;;;;5074416;28;20559;-71
2022/02/17 10:14:08;;;;;;;25.30;23.30;;;13.60;58.40;;;;;;5074365;28;20453;-72
2022/02/17 10:16:51;;;;;;;26.97;24.47;;;13.80;58.20;;;;;;5074316;28;20942;-72
2022/02/17 10:19:19;;;;;;;25.40;23.10;;;13.90;59.00;;;;;;5074338;28;20464;-72
2022/02/17 10:21:46;;;;;;;25.60;23.53;;;13.90;60.00;;;;;;5074104;28;20466;-72
2022/02/17 10:24:32;;;;;;;24.77;22.47;;;13.90;60.40;;;;;;5074150;28;20780;-72
2022/02/17 10:27:05;;;;;;;24.50;22.40;;;13.60;60.00;;;;;;5074040;28;20881;-72
2022/02/17 10:29:34;;;;;;;27.03;24.60;;;13.40;61.00;;;;;;5073404;28;20451;-72
2022/02/17 10:32:09;;;;;;;24.70;22.80;;;13.30;61.40;;;;;;5074834;28;20578;-72
2022/02/17 10:34:38;;;;;;;24.97;22.87;;;12.90;62.30;;;;;;5074278;28;20460;-72
2022/02/17 10:37:05;;;;;;;26.20;23.60;;;13.00;62.80;;;;;;5073668;28;20485;-72
2022/02/17 10:39:42;;;;;;;23.30;21.80;;;13.00;63.20;;;;;;5073678;28;20544;-71
2022/02/17 10:42:09;;;;;;;26.53;24.23;;;13.00;64.00;;;;;;5074177;28;20479;-72
2022/02/17 10:44:38;;;;;;;25.50;23.40;;;13.20;63.60;;;;;;5073652;28;20490;-72
2022/02/17 10:47:18;;;;;;;26.43;24.13;;;12.90;63.00;;;;;;5073930;28;20452;-72
2022/02/17 10:49:50;;;;;;;25.60;23.30;;;12.80;64.20;;;;;;5073555;28;20447;-71
2022/02/17 10:52:31;;;;;;;25.60;22.90;;;12.90;64.10;;;;;;5073825;28;20477;-72
2022/02/17 10:55:15;;;;;;;23.83;21.93;;;13.00;64.00;;;;;;5073540;28;20452;-72
2022/02/17 10:57:42;;;;;;;25.23;23.07;;;12.90;63.20;;;;;;5073188;28;20850;-72
2022/02/17 11:00:14;;;;;;;24.60;22.50;;;12.90;63.70;;;;;;5073230;28;20453;-71
2022/02/17 11:02:41;;;;;;;26.67;24.27;;;13.00;62.90;;;;;;5073501;28;20467;-72
2022/02/17 11:05:11;;;;;;;25.23;22.93;;;12.90;62.70;;;;;;5073374;28;20454;-72
2022/02/17 11:07:38;;;;;;;24.80;22.87;;;12.90;63.10;;;;;;5073310;28;20451;-73
2022/02/17 11:10:07;;;;;;;26.17;24.07;;;12.90;62.60;;;;;;5073090;28;20505;-74
2022/02/17 11:12:34;;;;;;;26.93;24.43;;;13.00;62.80;;;;;;5073235;28;20934;-73
2022/02/17 11:15:04;;;;;;;28.27;26.17;;;13.00;62.10;;;;;;5073234;28;20452;-74
2022/02/17 11:17:36;;;;;;;26.40;23.90;;;13.00;62.30;;;;;;5072935;28;20897;-73
2022/02/17 11:20:08;;;;;;;26.20;24.00;;;13.00;60.80;;;;;;5072985;28;20451;-74
2022/02/17 11:22:40;;;;;;;25.93;23.77;;;13.20;60.10;;;;;;5073238;28;20459;-74
2022/02/17 11:25:07;;;;;;;24.43;22.50;;;13.30;59.10;;;;;;5072905;28;20460;-72
2022/02/17 11:27:54;;;;;;;26.10;24.00;;;13.40;57.90;;;;;;5072931;28;20475;-71
2022/02/17 11:30:27;;;;;;;24.27;22.67;;;13.30;58.50;;;;;;5072338;28;20939;-71
2022/02/17 11:33:26;;;;;;;25.53;23.33;;;13.40;57.50;;;;;;5073100;28;20467;-73
2022/02/17 11:35:57;;;;;;;24.37;22.37;;;13.10;56.10;;;;;;5072957;28;20506;-73
2022/02/17 11:38:30;;;;;;;24.37;22.50;;;12.90;56.70;;;;;;5072858;28;20511;-73
2022/02/17 11:41:10;;;;;;;27.20;25.10;;;13.00;56.00;;;;;;5071877;28;20530;-73
2022/02/17 11:43:39;;;;;;;25.70;23.23;;;13.00;56.00;;;;;;5072806;28;20451;-73
2022/02/17 11:46:06;;;;;;;26.57;24.13;;;12.80;56.40;;;;;;5072530;28;20463;-72
2022/02/17 11:48:38;;;;;;;26.20;23.57;;;12.70;57.00;;;;;;5072631;28;20452;-72
2022/02/17 11:51:26;;;;;;;23.90;21.77;;;12.80;57.50;;;;;;5072470;28;20556;-71
2022/02/17 11:54:14;;;;;;;26.03;23.43;;;12.90;57.60;;;;;;5066263;28;20453;-71
2022/02/17 11:56:44;;;;;;;24.90;22.63;;;13.00;57.50;;;;;;5072629;28;20455;-71
2022/02/17 11:59:23;;;;;;;24.83;22.87;;;13.00;57.60;;;;;;5072223;28;20471;-71
2022/02/17 12:01:51;;;;;;;27.20;24.37;;;12.90;57.50;;;;;;5072544;28;20473;-71
2022/02/17 12:04:20;;;;;;;24.97;22.97;;;12.80;57.60;;;;;;5072387;28;20464;-71
2022/02/17 12:06:49;;;;;;;24.97;22.73;;;12.90;57.30;;;;;;5072295;28;20454;-71
2022/02/17 12:09:41;;;;;;;25.30;23.13;;;13.00;57.10;;;;;;5072216;28;20450;-71
2022/02/17 12:12:47;;;;;;;24.80;22.60;;;13.20;56.90;;;;;;5072516;28;20478;-71
2022/02/17 12:15:18;;;;;;;25.70;23.20;;;13.30;56.70;;;;;;5072437;28;20452;-71
2022/02/17 12:17:47;;;;;;;26.43;23.30;;;13.30;56.90;;;;;;5072262;28;20989;-73
2022/02/17 12:20:16;;;;;;;27.10;24.67;;;13.20;57.40;;;;;;5072067;28;20830;-73
2022/02/17 12:22:52;;;;;;;28.00;25.07;;;13.20;57.80;;;;;;5072384;28;20451;-74
2022/02/17 12:25:23;;;;;;;25.73;23.47;;;13.20;58.50;;;;;;5071888;28;20496;-73
2022/02/17 12:27:53;;;;;;;25.57;23.60;;;13.20;58.70;;;;;;5072152;28;20941;-71
2022/02/17 12:30:33;;;;;;;27.07;24.53;;;13.20;58.10;;;;;;5071784;28;21013;-71
2022/02/17 12:33:16;;;;;;;27.93;25.57;;;13.20;58.00;;;;;;5072316;28;20460;-71
2022/02/17 12:35:46;;;;;;;25.87;23.67;;;13.10;57.90;;;;;;5072131;28;20537;-71
2022/02/17 12:38:15;;;;;;;25.43;23.33;;;13.30;57.90;;;;;;5072184;28;20486;-71